< < Back
Terminal Aerodrome Forecast


Current Version              Previous Versions:   1  2  3  4  5  6  7  8  9  

Terminal Aerodrome Forecast

938
FTUS42 KMLB 182200 AAC
TAFMCO
TAF AMD
KMCO 182221Z 1822/1918 09010KT P6SM VCTS SCT050CB BKN070 BKN250
      TEMPO 1822/1824 34016G30KT 4SM TSRA SCT025 BKN050CB OVC070
     FM190000 VRB03KT P6SM FEW030 BKN250
     FM191400 05009KT P6SM SCT025 SCT150 OVC250=



Latest METAR

532
SAUS70 KWBC 190300 RRP
MTRMCO
METAR KMCO 190253Z 30004KT 10SM BKN120 BKN220 26/26 A2996 RMK AO2 SLP143
60000 T02560256 51020 $


USA.gov is the U.S. government's official web portal to all federal, state and local government web resources and services.